sensor_id;sensor_type;location;lat;lon;timestamp;temperature;humidity
3727;DHT22;1879;45.876;12.300;2023-03-01T00:01:19;4.90;76.10
3727;DHT22;1879;45.876;12.300;2023-03-01T00:03:46;4.80;76.90
3727;DHT22;1879;45.876;12.300;2023-03-01T00:06:14;4.80;77.40
3727;DHT22;1879;45.876;12.300;2023-03-01T00:08:41;4.80;78.10
3727;DHT22;1879;45.876;12.300;2023-03-01T00:11:12;4.80;78.50
3727;DHT22;1879;45.876;12.300;2023-03-01T00:13:41;4.80;79.50
3727;DHT22;1879;45.876;12.300;2023-03-01T00:18:46;4.70;80.10
3727;DHT22;1879;45.876;12.300;2023-03-01T00:21:19;4.70;80.60
3727;DHT22;1879;45.876;12.300;2023-03-01T00:23:53;4.70;81.40
3727;DHT22;1879;45.876;12.300;2023-03-01T00:26:24;4.60;81.30
3727;DHT22;1879;45.876;12.300;2023-03-01T00:29:15;4.70;82.30
3727;DHT22;1879;45.876;12.300;2023-03-01T00:31:48;4.70;83.30
3727;DHT22;1879;45.876;12.300;2023-03-01T00:34:15;4.70;82.80
3727;DHT22;1879;45.876;12.300;2023-03-01T00:36:42;4.70;83.00
3727;DHT22;1879;45.876;12.300;2023-03-01T00:39:14;4.70;83.00
3727;DHT22;1879;45.876;12.300;2023-03-01T00:41:43;4.70;82.80
3727;DHT22;1879;45.876;12.300;2023-03-01T00:44:10;4.70;83.20
3727;DHT22;1879;45.876;12.300;2023-03-01T00:46:38;4.70;83.20
3727;DHT22;1879;45.876;12.300;2023-03-01T00:49:05;4.70;83.30
3727;DHT22;1879;45.876;12.300;2023-03-01T00:51:32;4.70;83.30
3727;DHT22;1879;45.876;12.300;2023-03-01T00:54:01;4.70;83.60
3727;DHT22;1879;45.876;12.300;2023-03-01T00:56:29;4.70;83.60
3727;DHT22;1879;45.876;12.300;2023-03-01T00:58:58;4.70;83.90
3727;DHT22;1879;45.876;12.300;2023-03-01T01:01:27;4.70;83.70
3727;DHT22;1879;45.876;12.300;2023-03-01T01:04:16;4.70;83.90
3727;DHT22;1879;45.876;12.300;2023-03-01T01:06:46;4.70;84.70
3727;DHT22;1879;45.876;12.300;2023-03-01T01:09:27;4.70;84.10
3727;DHT22;1879;45.876;12.300;2023-03-01T01:12:03;4.70;84.30
3727;DHT22;1879;45.876;12.300;2023-03-01T01:14:32;4.70;84.90
3727;DHT22;1879;45.876;12.300;2023-03-01T01:17:00;4.70;84.70
3727;DHT22;1879;45.876;12.300;2023-03-01T01:19:27;4.70;84.70
3727;DHT22;1879;45.876;12.300;2023-03-01T01:21:55;4.70;84.50
3727;DHT22;1879;45.876;12.300;2023-03-01T01:24:22;4.70;84.80
3727;DHT22;1879;45.876;12.300;2023-03-01T01:26:49;4.70;85.30
3727;DHT22;1879;45.876;12.300;2023-03-01T01:29:17;4.70;85.20
3727;DHT22;1879;45.876;12.300;2023-03-01T01:31:45;4.60;85.60
3727;DHT22;1879;45.876;12.300;2023-03-01T01:34:14;4.60;85.60
3727;DHT22;1879;45.876;12.300;2023-03-01T01:36:41;4.60;85.80
3727;DHT22;1879;45.876;12.300;2023-03-01T01:39:08;4.60;87.00
3727;DHT22;1879;45.876;12.300;2023-03-01T01:41:39;4.50;86.90
3727;DHT22;1879;45.876;12.300;2023-03-01T01:44:13;4.50;87.60
3727;DHT22;1879;45.876;12.300;2023-03-01T01:46:41;4.50;88.10
3727;DHT22;1879;45.876;12.300;2023-03-01T01:49:19;4.50;88.90
3727;DHT22;1879;45.876;12.300;2023-03-01T01:51:53;4.50;88.60
3727;DHT22;1879;45.876;12.300;2023-03-01T01:54:26;4.50;88.20
3727;DHT22;1879;45.876;12.300;2023-03-01T01:56:58;4.50;88.60
3727;DHT22;1879;45.876;12.300;2023-03-01T01:59:27;4.60;88.70
3727;DHT22;1879;45.876;12.300;2023-03-01T02:01:55;4.60;88.90
3727;DHT22;1879;45.876;12.300;2023-03-01T02:04:26;4.60;88.60
3727;DHT22;1879;45.876;12.300;2023-03-01T02:06:57;5.10;88.80
3727;DHT22;1879;45.876;12.300;2023-03-01T02:09:25;4.70;88.60
3727;DHT22;1879;45.876;12.300;2023-03-01T02:11:54;4.70;88.30
3727;DHT22;1879;45.876;12.300;2023-03-01T02:14:21;4.70;88.40
3727;DHT22;1879;45.876;12.300;2023-03-01T02:16:48;4.80;88.10
3727;DHT22;1879;45.876;12.300;2023-03-01T02:19:31;4.80;87.70
3727;DHT22;1879;45.876;12.300;2023-03-01T02:22:06;4.80;87.90
3727;DHT22;1879;45.876;12.300;2023-03-01T02:24:40;4.80;87.90
3727;DHT22;1879;45.876;12.300;2023-03-01T02:27:11;4.90;87.50
3727;DHT22;1879;45.876;12.300;2023-03-01T02:32:17;4.90;87.70
3727;DHT22;1879;45.876;12.300;2023-03-01T02:34:51;4.90;87.60
3727;DHT22;1879;45.876;12.300;2023-03-01T02:37:18;5.00;87.90
3727;DHT22;1879;45.876;12.300;2023-03-01T02:39:53;5.00;87.30
3727;DHT22;1879;45.876;12.300;2023-03-01T02:42:26;5.00;87.20
3727;DHT22;1879;45.876;12.300;2023-03-01T02:44:55;5.00;87.20
3727;DHT22;1879;45.876;12.300;2023-03-01T02:47:23;5.00;87.40
3727;DHT22;1879;45.876;12.300;2023-03-01T02:49:50;5.00;87.30
3727;DHT22;1879;45.876;12.300;2023-03-01T02:55:08;5.10;87.50
3727;DHT22;1879;45.876;12.300;2023-03-01T02:57:39;5.10;87.20
3727;DHT22;1879;45.876;12.300;2023-03-01T03:00:08;5.20;86.80
3727;DHT22;1879;45.876;12.300;2023-03-01T03:02:37;5.20;86.90
3727;DHT22;1879;45.876;12.300;2023-03-01T03:05:09;5.20;86.60
3727;DHT22;1879;45.876;12.300;2023-03-01T03:07:37;5.30;86.40
3727;DHT22;1879;45.876;12.300;2023-03-01T03:10:13;5.40;86.20
3727;DHT22;1879;45.876;12.300;2023-03-01T03:12:41;5.40;86.10
3727;DHT22;1879;45.876;12.300;2023-03-01T03:15:10;5.40;86.20
3727;DHT22;1879;45.876;12.300;2023-03-01T03:17:41;5.40;85.80
3727;DHT22;1879;45.876;12.300;2023-03-01T03:20:10;5.40;86.00
3727;DHT22;1879;45.876;12.300;2023-03-01T03:22:38;5.40;86.20
3727;DHT22;1879;45.876;12.300;2023-03-01T03:25:07;5.40;85.70
3727;DHT22;1879;45.876;12.300;2023-03-01T03:27:36;5.40;85.60
3727;DHT22;1879;45.876;12.300;2023-03-01T03:30:04;5.40;85.60
3727;DHT22;1879;45.876;12.300;2023-03-01T03:32:34;5.30;86.30
3727;DHT22;1879;45.876;12.300;2023-03-01T03:35:04;5.20;86.10
3727;DHT22;1879;45.876;12.300;2023-03-01T03:37:35;5.10;86.60
3727;DHT22;1879;45.876;12.300;2023-03-01T03:40:20;5.00;87.30
3727;DHT22;1879;45.876;12.300;2023-03-01T03:42:50;4.90;87.40
3727;DHT22;1879;45.876;12.300;2023-03-01T03:45:17;4.90;87.70
3727;DHT22;1879;45.876;12.300;2023-03-01T03:47:45;4.90;88.30
3727;DHT22;1879;45.876;12.300;2023-03-01T03:50:14;4.80;88.20
3727;DHT22;1879;45.876;12.300;2023-03-01T03:52:42;4.90;88.80
3727;DHT22;1879;45.876;12.300;2023-03-01T03:55:11;4.80;89.30
3727;DHT22;1879;45.876;12.300;2023-03-01T03:57:59;4.80;90.00
3727;DHT22;1879;45.876;12.300;2023-03-01T04:00:33;4.70;90.10
3727;DHT22;1879;45.876;12.300;2023-03-01T04:03:00;4.70;90.50
3727;DHT22;1879;45.876;12.300;2023-03-01T04:05:30;4.60;90.80
3727;DHT22;1879;45.876;12.300;2023-03-01T04:07:57;4.60;91.10
3727;DHT22;1879;45.876;12.300;2023-03-01T04:10:44;4.60;91.40
3727;DHT22;1879;45.876;12.300;2023-03-01T04:13:33;4.60;91.80
3727;DHT22;1879;45.876;12.300;2023-03-01T04:16:14;4.50;91.80
3727;DHT22;1879;45.876;12.300;2023-03-01T04:18:41;4.50;91.80
3727;DHT22;1879;45.876;12.300;2023-03-01T04:21:10;4.50;92.40
3727;DHT22;1879;45.876;12.300;2023-03-01T04:23:41;4.50;92.20
3727;DHT22;1879;45.876;12.300;2023-03-01T04:26:18;4.50;91.80
3727;DHT22;1879;45.876;12.300;2023-03-01T04:29:11;4.60;91.80
3727;DHT22;1879;45.876;12.300;2023-03-01T04:32:08;4.60;91.80
3727;DHT22;1879;45.876;12.300;2023-03-01T04:40:04;4.70;91.50
3727;DHT22;1879;45.876;12.300;2023-03-01T04:42:44;4.80;91.80
3727;DHT22;1879;45.876;12.300;2023-03-01T04:45:13;4.90;90.90
3727;DHT22;1879;45.876;12.300;2023-03-01T04:48:00;5.00;90.80
3727;DHT22;1879;45.876;12.300;2023-03-01T05:00:23;5.00;90.70
3727;DHT22;1879;45.876;12.300;2023-03-01T05:02:56;5.10;90.80
3727;DHT22;1879;45.876;12.300;2023-03-01T05:05:26;5.10;90.60
3727;DHT22;1879;45.876;12.300;2023-03-01T05:07:58;5.00;90.70
3727;DHT22;1879;45.876;12.300;2023-03-01T05:10:34;5.10;90.80
3727;DHT22;1879;45.876;12.300;2023-03-01T05:13:08;5.00;90.80
3727;DHT22;1879;45.876;12.300;2023-03-01T05:15:54;5.00;90.90
3727;DHT22;1879;45.876;12.300;2023-03-01T05:18:23;5.00;91.10
3727;DHT22;1879;45.876;12.300;2023-03-01T05:21:02;4.90;91.30
3727;DHT22;1879;45.876;12.300;2023-03-01T05:23:34;4.80;91.60
3727;DHT22;1879;45.876;12.300;2023-03-01T05:26:14;4.80;92.10
3727;DHT22;1879;45.876;12.300;2023-03-01T05:28:59;4.70;92.70
3727;DHT22;1879;45.876;12.300;2023-03-01T05:31:28;4.60;93.10
3727;DHT22;1879;45.876;12.300;2023-03-01T05:33:59;4.50;93.50
3727;DHT22;1879;45.876;12.300;2023-03-01T05:36:27;4.50;93.80
3727;DHT22;1879;45.876;12.300;2023-03-01T05:38:54;4.50;94.30
3727;DHT22;1879;45.876;12.300;2023-03-01T05:41:22;4.50;94.20
3727;DHT22;1879;45.876;12.300;2023-03-01T05:47:00;4.40;95.10
3727;DHT22;1879;45.876;12.300;2023-03-01T05:49:28;4.40;95.30
3727;DHT22;1879;45.876;12.300;2023-03-01T05:51:58;4.50;95.00
3727;DHT22;1879;45.876;12.300;2023-03-01T05:58:06;4.60;95.40
3727;DHT22;1879;45.876;12.300;2023-03-01T06:00:34;4.70;94.20
3727;DHT22;1879;45.876;12.300;2023-03-01T06:03:03;4.70;94.20
3727;DHT22;1879;45.876;12.300;2023-03-01T06:05:30;4.80;94.00
3727;DHT22;1879;45.876;12.300;2023-03-01T06:08:27;4.80;94.30
3727;DHT22;1879;45.876;12.300;2023-03-01T06:14:08;5.00;94.60
3727;DHT22;1879;45.876;12.300;2023-03-01T06:16:53;5.10;94.00
3727;DHT22;1879;45.876;12.300;2023-03-01T06:19:22;5.20;93.80
3727;DHT22;1879;45.876;12.300;2023-03-01T06:21:49;5.20;92.90
3727;DHT22;1879;45.876;12.300;2023-03-01T06:24:17;5.30;93.00
3727;DHT22;1879;45.876;12.300;2023-03-01T06:26:57;5.40;92.80
3727;DHT22;1879;45.876;12.300;2023-03-01T06:29:24;5.50;92.60
3727;DHT22;1879;45.876;12.300;2023-03-01T06:31:51;5.50;92.50
3727;DHT22;1879;45.876;12.300;2023-03-01T06:34:22;5.60;92.30
3727;DHT22;1879;45.876;12.300;2023-03-01T06:39:24;5.70;92.20
3727;DHT22;1879;45.876;12.300;2023-03-01T06:41:54;5.80;91.70
3727;DHT22;1879;45.876;12.300;2023-03-01T06:44:21;5.80;91.40
3727;DHT22;1879;45.876;12.300;2023-03-01T06:46:48;5.90;91.30
3727;DHT22;1879;45.876;12.300;2023-03-01T06:49:16;5.90;91.50
3727;DHT22;1879;45.876;12.300;2023-03-01T06:51:44;5.90;91.50
3727;DHT22;1879;45.876;12.300;2023-03-01T06:54:12;6.00;91.50
3727;DHT22;1879;45.876;12.300;2023-03-01T06:56:39;6.00;91.40
3727;DHT22;1879;45.876;12.300;2023-03-01T06:59:06;6.20;91.30
3727;DHT22;1879;45.876;12.300;2023-03-01T07:01:33;6.30;91.00
3727;DHT22;1879;45.876;12.300;2023-03-01T07:04:00;6.40;91.00
3727;DHT22;1879;45.876;12.300;2023-03-01T07:06:27;6.50;90.80
3727;DHT22;1879;45.876;12.300;2023-03-01T07:08:56;6.60;90.60
3727;DHT22;1879;45.876;12.300;2023-03-01T07:11:23;6.80;90.30
3727;DHT22;1879;45.876;12.300;2023-03-01T07:13:50;6.80;90.20
3727;DHT22;1879;45.876;12.300;2023-03-01T07:16:17;6.90;90.00
3727;DHT22;1879;45.876;12.300;2023-03-01T07:18:46;7.00;89.50
3727;DHT22;1879;45.876;12.300;2023-03-01T07:21:15;7.00;89.30
3727;DHT22;1879;45.876;12.300;2023-03-01T07:23:42;7.00;89.10
3727;DHT22;1879;45.876;12.300;2023-03-01T07:26:10;7.10;88.70
3727;DHT22;1879;45.876;12.300;2023-03-01T07:28:37;7.20;88.10
3727;DHT22;1879;45.876;12.300;2023-03-01T07:31:05;7.30;88.10
3727;DHT22;1879;45.876;12.300;2023-03-01T07:33:32;7.40;87.50
3727;DHT22;1879;45.876;12.300;2023-03-01T07:36:04;7.50;87.70
3727;DHT22;1879;45.876;12.300;2023-03-01T07:38:34;7.70;86.60
3727;DHT22;1879;45.876;12.300;2023-03-01T07:41:02;7.90;85.60
3727;DHT22;1879;45.876;12.300;2023-03-01T07:43:32;8.00;84.70
3727;DHT22;1879;45.876;12.300;2023-03-01T07:46:01;8.20;84.50
3727;DHT22;1879;45.876;12.300;2023-03-01T07:48:29;8.40;83.70
3727;DHT22;1879;45.876;12.300;2023-03-01T07:50:58;8.60;86.40
3727;DHT22;1879;45.876;12.300;2023-03-01T07:53:26;9.20;89.00
3727;DHT22;1879;45.876;12.300;2023-03-01T07:56:00;9.70;87.60
3727;DHT22;1879;45.876;12.300;2023-03-01T07:58:28;10.20;86.80
3727;DHT22;1879;45.876;12.300;2023-03-01T08:00:57;10.50;83.50
3727;DHT22;1879;45.876;12.300;2023-03-01T08:03:27;10.60;81.00
3727;DHT22;1879;45.876;12.300;2023-03-01T08:05:54;10.30;78.90
3727;DHT22;1879;45.876;12.300;2023-03-01T08:08:21;10.10;77.30
3727;DHT22;1879;45.876;12.300;2023-03-01T08:10:48;10.00;76.60
3727;DHT22;1879;45.876;12.300;2023-03-01T08:13:15;9.80;78.00
3727;DHT22;1879;45.876;12.300;2023-03-01T08:15:47;9.70;77.20
3727;DHT22;1879;45.876;12.300;2023-03-01T08:18:16;9.70;77.30
3727;DHT22;1879;45.876;12.300;2023-03-01T08:20:43;9.70;77.90
3727;DHT22;1879;45.876;12.300;2023-03-01T08:23:11;9.70;77.70
3727;DHT22;1879;45.876;12.300;2023-03-01T08:25:37;9.70;77.90
3727;DHT22;1879;45.876;12.300;2023-03-01T08:28:05;9.70;76.60
3727;DHT22;1879;45.876;12.300;2023-03-01T08:30:32;9.70;76.10
3727;DHT22;1879;45.876;12.300;2023-03-01T08:32:59;9.80;76.20
3727;DHT22;1879;45.876;12.300;2023-03-01T08:35:27;9.80;75.40
3727;DHT22;1879;45.876;12.300;2023-03-01T08:37:54;9.80;76.10
3727;DHT22;1879;45.876;12.300;2023-03-01T08:40:21;9.80;75.30
3727;DHT22;1879;45.876;12.300;2023-03-01T08:42:48;9.80;74.80
3727;DHT22;1879;45.876;12.300;2023-03-01T08:45:15;10.00;74.30
3727;DHT22;1879;45.876;12.300;2023-03-01T08:47:44;10.10;74.40
3727;DHT22;1879;45.876;12.300;2023-03-01T08:50:15;10.20;73.00
3727;DHT22;1879;45.876;12.300;2023-03-01T08:52:46;10.30;72.60
3727;DHT22;1879;45.876;12.300;2023-03-01T08:55:13;10.40;73.00
3727;DHT22;1879;45.876;12.300;2023-03-01T08:57:41;10.50;72.90
3727;DHT22;1879;45.876;12.300;2023-03-01T09:00:12;10.60;72.60
3727;DHT22;1879;45.876;12.300;2023-03-01T09:02:40;10.40;72.20
3727;DHT22;1879;45.876;12.300;2023-03-01T09:05:08;10.50;73.20
3727;DHT22;1879;45.876;12.300;2023-03-01T09:07:35;10.60;73.00
3727;DHT22;1879;45.876;12.300;2023-03-01T09:10:04;10.70;72.90
3727;DHT22;1879;45.876;12.300;2023-03-01T09:12:32;10.70;72.30
3727;DHT22;1879;45.876;12.300;2023-03-01T09:14:59;10.90;73.30
3727;DHT22;1879;45.876;12.300;2023-03-01T09:17:26;11.20;73.40
3727;DHT22;1879;45.876;12.300;2023-03-01T09:19:53;11.30;71.90
3727;DHT22;1879;45.876;12.300;2023-03-01T09:22:20;11.40;71.10
3727;DHT22;1879;45.876;12.300;2023-03-01T09:24:47;11.40;70.90
3727;DHT22;1879;45.876;12.300;2023-03-01T09:27:15;11.50;70.60
3727;DHT22;1879;45.876;12.300;2023-03-01T09:29:44;11.70;70.30
3727;DHT22;1879;45.876;12.300;2023-03-01T09:32:11;11.80;70.10
3727;DHT22;1879;45.876;12.300;2023-03-01T09:34:38;12.00;70.70
3727;DHT22;1879;45.876;12.300;2023-03-01T09:37:19;12.10;69.30
3727;DHT22;1879;45.876;12.300;2023-03-01T09:39:46;12.30;69.10
3727;DHT22;1879;45.876;12.300;2023-03-01T09:42:14;12.50;69.20
3727;DHT22;1879;45.876;12.300;2023-03-01T09:44:45;12.60;68.40
3727;DHT22;1879;45.876;12.300;2023-03-01T09:47:18;12.60;67.40
3727;DHT22;1879;45.876;12.300;2023-03-01T09:49:59;12.60;67.70
3727;DHT22;1879;45.876;12.300;2023-03-01T09:52:35;12.50;67.70
3727;DHT22;1879;45.876;12.300;2023-03-01T09:55:09;12.50;67.30
3727;DHT22;1879;45.876;12.300;2023-03-01T09:57:43;12.50;67.90
3727;DHT22;1879;45.876;12.300;2023-03-01T10:00:24;12.60;68.00
3727;DHT22;1879;45.876;12.300;2023-03-01T10:02:59;12.70;67.50
3727;DHT22;1879;45.876;12.300;2023-03-01T10:05:36;12.70;68.10
3727;DHT22;1879;45.876;12.300;2023-03-01T10:08:24;12.70;67.70
3727;DHT22;1879;45.876;12.300;2023-03-01T10:10:53;12.90;68.30
3727;DHT22;1879;45.876;12.300;2023-03-01T10:13:25;12.90;67.70
3727;DHT22;1879;45.876;12.300;2023-03-01T10:15:56;13.00;67.60
3727;DHT22;1879;45.876;12.300;2023-03-01T10:18:26;13.20;67.30
3727;DHT22;1879;45.876;12.300;2023-03-01T10:20:57;13.40;67.30
3727;DHT22;1879;45.876;12.300;2023-03-01T10:23:26;13.50;66.70
3727;DHT22;1879;45.876;12.300;2023-03-01T10:26:18;13.50;66.30
3727;DHT22;1879;45.876;12.300;2023-03-01T10:28:57;13.30;66.20
3727;DHT22;1879;45.876;12.300;2023-03-01T10:31:35;13.30;66.30
3727;DHT22;1879;45.876;12.300;2023-03-01T10:34:07;13.30;65.80
3727;DHT22;1879;45.876;12.300;2023-03-01T10:36:35;13.40;66.00
3727;DHT22;1879;45.876;12.300;2023-03-01T10:39:12;13.30;65.00
3727;DHT22;1879;45.876;12.300;2023-03-01T10:41:57;13.30;63.50
3727;DHT22;1879;45.876;12.300;2023-03-01T10:44:41;13.40;64.80
3727;DHT22;1879;45.876;12.300;2023-03-01T10:47:14;13.40;63.10
3727;DHT22;1879;45.876;12.300;2023-03-01T10:49:53;13.60;63.20
3727;DHT22;1879;45.876;12.300;2023-03-01T10:52:23;13.70;62.70
3727;DHT22;1879;45.876;12.300;2023-03-01T10:54:56;13.70;62.50
3727;DHT22;1879;45.876;12.300;2023-03-01T10:57:35;13.70;61.80
3727;DHT22;1879;45.876;12.300;2023-03-01T11:00:23;13.80;62.60
3727;DHT22;1879;45.876;12.300;2023-03-01T11:03:10;13.70;61.60
3727;DHT22;1879;45.876;12.300;2023-03-01T11:06:00;13.50;60.30
3727;DHT22;1879;45.876;12.300;2023-03-01T11:08:38;13.40;60.70
3727;DHT22;1879;45.876;12.300;2023-03-01T11:13:59;13.30;60.20
3727;DHT22;1879;45.876;12.300;2023-03-01T11:16:33;13.40;60.90
3727;DHT22;1879;45.876;12.300;2023-03-01T11:19:19;13.30;60.00
3727;DHT22;1879;45.876;12.300;2023-03-01T11:21:54;13.40;59.80
3727;DHT22;1879;45.876;12.300;2023-03-01T11:24:29;13.40;59.80
3727;DHT22;1879;45.876;12.300;2023-03-01T11:27:00;13.20;59.30
3727;DHT22;1879;45.876;12.300;2023-03-01T11:29:34;13.30;59.40
3727;DHT22;1879;45.876;12.300;2023-03-01T11:32:06;13.20;59.60
3727;DHT22;1879;45.876;12.300;2023-03-01T11:34:40;13.10;59.40
3727;DHT22;1879;45.876;12.300;2023-03-01T11:37:16;13.00;59.50
3727;DHT22;1879;45.876;12.300;2023-03-01T11:39:55;13.00;59.40
3727;DHT22;1879;45.876;12.300;2023-03-01T11:42:35;13.00;59.80
3727;DHT22;1879;45.876;12.300;2023-03-01T11:45:08;12.90;60.00
3727;DHT22;1879;45.876;12.300;2023-03-01T11:47:54;12.90;59.60
3727;DHT22;1879;45.876;12.300;2023-03-01T11:50:30;12.80;59.70
3727;DHT22;1879;45.876;12.300;2023-03-01T11:56:04;12.70;59.70
3727;DHT22;1879;45.876;12.300;2023-03-01T12:02:07;12.70;60.00
3727;DHT22;1879;45.876;12.300;2023-03-01T12:04:59;12.70;60.20
3727;DHT22;1879;45.876;12.300;2023-03-01T12:07:32;12.80;59.80
3727;DHT22;1879;45.876;12.300;2023-03-01T12:10:22;12.80;59.50
3727;DHT22;1879;45.876;12.300;2023-03-01T12:15:51;12.70;59.20
3727;DHT22;1879;45.876;12.300;2023-03-01T12:18:38;12.70;59.60
3727;DHT22;1879;45.876;12.300;2023-03-01T12:21:18;12.50;58.90
3727;DHT22;1879;45.876;12.300;2023-03-01T12:24:15;12.50;59.50
3727;DHT22;1879;45.876;12.300;2023-03-01T12:26:56;12.50;59.40
3727;DHT22;1879;45.876;12.300;2023-03-01T12:29:35;12.40;59.10
3727;DHT22;1879;45.876;12.300;2023-03-01T12:32:19;12.40;59.30
3727;DHT22;1879;45.876;12.300;2023-03-01T12:35:13;12.30;59.40
3727;DHT22;1879;45.876;12.300;2023-03-01T12:37:54;12.30;60.00
3727;DHT22;1879;45.876;12.300;2023-03-01T12:41:01;12.30;60.00
3727;DHT22;1879;45.876;12.300;2023-03-01T12:43:41;12.20;59.80
3727;DHT22;1879;45.876;12.300;2023-03-01T12:46:18;12.10;59.90
3727;DHT22;1879;45.876;12.300;2023-03-01T12:48:54;12.10;60.10
3727;DHT22;1879;45.876;12.300;2023-03-01T12:51:28;12.00;60.10
3727;DHT22;1879;45.876;12.300;2023-03-01T12:53:59;11.90;60.10
3727;DHT22;1879;45.876;12.300;2023-03-01T12:56:30;11.90;60.50
3727;DHT22;1879;45.876;12.300;2023-03-01T12:59:04;11.90;61.20
3727;DHT22;1879;45.876;12.300;2023-03-01T13:01:41;11.90;60.40
3727;DHT22;1879;45.876;12.300;2023-03-01T13:04:21;11.80;60.70
3727;DHT22;1879;45.876;12.300;2023-03-01T13:07:07;11.70;61.20
3727;DHT22;1879;45.876;12.300;2023-03-01T13:09:40;11.60;60.90
3727;DHT22;1879;45.876;12.300;2023-03-01T13:12:50;11.60;61.30
3727;DHT22;1879;45.876;12.300;2023-03-01T13:15:35;11.60;63.50
3727;DHT22;1879;45.876;12.300;2023-03-01T13:18:04;11.50;67.70
3727;DHT22;1879;45.876;12.300;2023-03-01T13:20:52;11.40;68.40
3727;DHT22;1879;45.876;12.300;2023-03-01T13:23:29;11.30;70.10
3727;DHT22;1879;45.876;12.300;2023-03-01T13:26:10;11.30;71.00
3727;DHT22;1879;45.876;12.300;2023-03-01T13:34:58;11.30;71.70
3727;DHT22;1879;45.876;12.300;2023-03-01T13:37:31;11.30;72.20
3727;DHT22;1879;45.876;12.300;2023-03-01T13:40:01;11.30;71.10
3727;DHT22;1879;45.876;12.300;2023-03-01T13:42:43;11.40;70.90
3727;DHT22;1879;45.876;12.300;2023-03-01T13:45:21;11.50;70.50
3727;DHT22;1879;45.876;12.300;2023-03-01T13:47:53;11.60;70.00
3727;DHT22;1879;45.876;12.300;2023-03-01T13:50:25;11.80;70.00
3727;DHT22;1879;45.876;12.300;2023-03-01T13:52:57;11.90;69.30
3727;DHT22;1879;45.876;12.300;2023-03-01T13:55:32;12.00;68.00
3727;DHT22;1879;45.876;12.300;2023-03-01T13:58:05;12.10;68.70
3727;DHT22;1879;45.876;12.300;2023-03-01T14:00:40;12.20;68.90
3727;DHT22;1879;45.876;12.300;2023-03-01T14:03:13;12.30;68.30
3727;DHT22;1879;45.876;12.300;2023-03-01T14:05:42;12.30;67.40
3727;DHT22;1879;45.876;12.300;2023-03-01T14:08:20;12.40;67.50
3727;DHT22;1879;45.876;12.300;2023-03-01T14:10:57;12.40;66.70
3727;DHT22;1879;45.876;12.300;2023-03-01T14:13:40;12.50;66.60
3727;DHT22;1879;45.876;12.300;2023-03-01T14:16:24;12.50;66.70
3727;DHT22;1879;45.876;12.300;2023-03-01T14:19:05;12.60;66.70
3727;DHT22;1879;45.876;12.300;2023-03-01T14:21:36;12.50;65.90
3727;DHT22;1879;45.876;12.300;2023-03-01T14:24:03;12.60;66.60
3727;DHT22;1879;45.876;12.300;2023-03-01T14:26:31;12.70;66.40
3727;DHT22;1879;45.876;12.300;2023-03-01T14:29:01;12.70;65.90
3727;DHT22;1879;45.876;12.300;2023-03-01T14:31:35;12.80;66.20
3727;DHT22;1879;45.876;12.300;2023-03-01T14:34:03;12.90;66.00
3727;DHT22;1879;45.876;12.300;2023-03-01T14:36:32;13.00;66.40
3727;DHT22;1879;45.876;12.300;2023-03-01T14:38:59;13.10;65.70
3727;DHT22;1879;45.876;12.300;2023-03-01T14:41:33;13.30;65.40
3727;DHT22;1879;45.876;12.300;2023-03-01T14:44:07;13.50;65.20
3727;DHT22;1879;45.876;12.300;2023-03-01T14:46:40;13.60;64.90
3727;DHT22;1879;45.876;12.300;2023-03-01T14:49:12;13.60;64.70
3727;DHT22;1879;45.876;12.300;2023-03-01T14:51:42;13.70;64.90
3727;DHT22;1879;45.876;12.300;2023-03-01T14:54:21;13.70;64.60
3727;DHT22;1879;45.876;12.300;2023-03-01T14:56:48;13.80;64.60
3727;DHT22;1879;45.876;12.300;2023-03-01T14:59:21;13.80;64.40
3727;DHT22;1879;45.876;12.300;2023-03-01T15:01:49;13.80;64.30
3727;DHT22;1879;45.876;12.300;2023-03-01T15:04:16;13.90;64.80
3727;DHT22;1879;45.876;12.300;2023-03-01T15:06:45;13.90;64.60
3727;DHT22;1879;45.876;12.300;2023-03-01T15:09:14;13.90;64.50
3727;DHT22;1879;45.876;12.300;2023-03-01T15:11:42;13.80;64.50
3727;DHT22;1879;45.876;12.300;2023-03-01T15:14:39;13.70;64.20
3727;DHT22;1879;45.876;12.300;2023-03-01T15:17:21;13.50;64.10
3727;DHT22;1879;45.876;12.300;2023-03-01T15:19:49;13.40;63.60
3727;DHT22;1879;45.876;12.300;2023-03-01T15:22:17;13.30;63.40
3727;DHT22;1879;45.876;12.300;2023-03-01T15:24:47;13.10;63.10
3727;DHT22;1879;45.876;12.300;2023-03-01T15:27:16;13.10;63.50
3727;DHT22;1879;45.876;12.300;2023-03-01T15:29:50;13.00;62.50
3727;DHT22;1879;45.876;12.300;2023-03-01T15:32:28;12.90;62.50
3727;DHT22;1879;45.876;12.300;2023-03-01T15:34:57;12.90;62.40
3727;DHT22;1879;45.876;12.300;2023-03-01T15:37:40;12.90;62.30
3727;DHT22;1879;45.876;12.300;2023-03-01T15:40:22;12.90;61.90
3727;DHT22;1879;45.876;12.300;2023-03-01T15:42:57;12.80;61.50
3727;DHT22;1879;45.876;12.300;2023-03-01T15:45:27;12.80;61.50
3727;DHT22;1879;45.876;12.300;2023-03-01T15:47:56;12.70;61.60
3727;DHT22;1879;45.876;12.300;2023-03-01T15:50:26;12.60;61.60
3727;DHT22;1879;45.876;12.300;2023-03-01T15:52:54;12.50;61.60
3727;DHT22;1879;45.876;12.300;2023-03-01T15:55:23;12.50;62.30
3727;DHT22;1879;45.876;12.300;2023-03-01T15:57:59;12.50;63.10
3727;DHT22;1879;45.876;12.300;2023-03-01T16:00:28;12.50;64.20
3727;DHT22;1879;45.876;12.300;2023-03-01T16:02:56;12.40;65.30
3727;DHT22;1879;45.876;12.300;2023-03-01T16:05:25;12.30;66.20
3727;DHT22;1879;45.876;12.300;2023-03-01T16:07:52;12.30;67.50
3727;DHT22;1879;45.876;12.300;2023-03-01T16:10:19;12.10;68.80
3727;DHT22;1879;45.876;12.300;2023-03-01T16:12:46;12.10;69.80
3727;DHT22;1879;45.876;12.300;2023-03-01T16:15:17;12.00;70.40
3727;DHT22;1879;45.876;12.300;2023-03-01T16:17:46;11.90;70.90
3727;DHT22;1879;45.876;12.300;2023-03-01T16:20:13;11.80;72.00
3727;DHT22;1879;45.876;12.300;2023-03-01T16:22:41;11.80;72.10
3727;DHT22;1879;45.876;12.300;2023-03-01T16:25:10;11.80;72.70
3727;DHT22;1879;45.876;12.300;2023-03-01T16:27:38;11.70;74.00
3727;DHT22;1879;45.876;12.300;2023-03-01T16:30:06;11.70;74.50
3727;DHT22;1879;45.876;12.300;2023-03-01T16:32:37;11.60;74.30
3727;DHT22;1879;45.876;12.300;2023-03-01T16:35:07;11.50;74.70
3727;DHT22;1879;45.876;12.300;2023-03-01T16:37:35;11.50;75.80
3727;DHT22;1879;45.876;12.300;2023-03-01T16:40:03;11.40;77.10
3727;DHT22;1879;45.876;12.300;2023-03-01T16:42:33;11.40;78.30
3727;DHT22;1879;45.876;12.300;2023-03-01T16:45:00;11.20;81.90
3727;DHT22;1879;45.876;12.300;2023-03-01T16:47:27;11.20;82.20
3727;DHT22;1879;45.876;12.300;2023-03-01T16:49:55;11.10;84.90
3727;DHT22;1879;45.876;12.300;2023-03-01T16:52:23;11.00;84.90
3727;DHT22;1879;45.876;12.300;2023-03-01T16:54:50;10.90;87.80
3727;DHT22;1879;45.876;12.300;2023-03-01T16:57:17;10.90;90.40
3727;DHT22;1879;45.876;12.300;2023-03-01T16:59:44;10.90;92.40
3727;DHT22;1879;45.876;12.300;2023-03-01T17:02:12;10.90;93.20
3727;DHT22;1879;45.876;12.300;2023-03-01T17:04:40;10.90;95.10
3727;DHT22;1879;45.876;12.300;2023-03-01T17:07:07;10.90;94.60
3727;DHT22;1879;45.876;12.300;2023-03-01T17:09:36;10.80;96.30
3727;DHT22;1879;45.876;12.300;2023-03-01T17:12:04;10.80;96.80
3727;DHT22;1879;45.876;12.300;2023-03-01T17:14:31;10.70;97.00
3727;DHT22;1879;45.876;12.300;2023-03-01T17:16:58;10.60;98.00
3727;DHT22;1879;45.876;12.300;2023-03-01T17:19:28;10.60;99.20
3727;DHT22;1879;45.876;12.300;2023-03-01T17:21:55;10.50;98.30